MMCP/CPE METAR and TAF weather

Enter ICAO airport designator
Station Type Date Time Source
MMCP METAR 2022/06/28 23:41 UTC NOAA

MMCP 282341Z 32008KT 7SM BKN100 28/25 A2997 RMK SLP136 57005 901 8/070 DSNT CB E


Station Type Date Time Source
MMCP Decoded METAR 2022/06/28 23:41 UTC NOAA

Campeche, Camp., Mexico (MMCP) 19-51N 090-33W
Jun 28, 2022 - 07:41 PM EDT / 2022.06.28 2341 UTC
Wind: from the NW (320 degrees) at 9 MPH (8 KT):0
Visibility: 7 mile(s):0
Sky conditions: mostly cloudy
Weather: Cumulonimbus clouds observed
Temperature: 82 F (28 C)
Dew Point: 77 F (25 C)
Relative Humidity: 83%
Pressure (altimeter): 29.97 in. Hg (1014 hPa)
Pressure tendency: 0.01 inches (0.5 hPa) lower than three hours ago
ob: MMCP 282341Z 32008KT 7SM BKN100 28/25 A2997 RMK SLP136 57005 901 8/070 DSNT CB E
cycle: 23

Station Type Date Time Source
MMCP TAF 2022/06/28 19:59 UTC NOAA

TAF
AMD MMCP 281855Z 2819/2918 18010KT 3SM TSRA BKN015CB
FM282000 34010G20KT P6SM SCT020CB BKN200
TEMPO 2822/2902 2SM TSRA OVC010CB
FM290300 12010KT P6SM SCT015 BKN200
FM291200 00000KT 3SM BR BKN010
FM291400 12015KT P6SM SCT020

Example: see airport list